sensor_id;sensor_type;location;lat;lon;timestamp;temperature;humidity
27224;DHT22;14965;50.660;13.226;2023-04-12T00:01:02;2.10;99.90
27224;DHT22;14965;50.660;13.226;2023-04-12T00:03:30;2.00;99.90
27224;DHT22;14965;50.660;13.226;2023-04-12T00:05:55;2.00;99.90
27224;DHT22;14965;50.660;13.226;2023-04-12T00:08:22;2.00;99.90
27224;DHT22;14965;50.660;13.226;2023-04-12T00:10:48;1.90;99.90
27224;DHT22;14965;50.660;13.226;2023-04-12T00:13:13;1.90;99.90
27224;DHT22;14965;50.660;13.226;2023-04-12T00:15:39;1.90;99.90
27224;DHT22;14965;50.660;13.226;2023-04-12T00:18:05;1.90;99.90
27224;DHT22;14965;50.660;13.226;2023-04-12T00:20:32;1.90;99.90
27224;DHT22;14965;50.660;13.226;2023-04-12T00:22:58;1.90;99.90
27224;DHT22;14965;50.660;13.226;2023-04-12T00:25:24;1.90;99.90
27224;DHT22;14965;50.660;13.226;2023-04-12T00:27:50;1.90;99.90
27224;DHT22;14965;50.660;13.226;2023-04-12T00:30:16;1.90;99.90
27224;DHT22;14965;50.660;13.226;2023-04-12T00:32:42;1.80;99.90
27224;DHT22;14965;50.660;13.226;2023-04-12T00:35:08;1.80;99.90
27224;DHT22;14965;50.660;13.226;2023-04-12T00:37:35;1.70;99.90
27224;DHT22;14965;50.660;13.226;2023-04-12T00:40:01;1.70;99.90
27224;DHT22;14965;50.660;13.226;2023-04-12T00:42:28;1.60;99.90
27224;DHT22;14965;50.660;13.226;2023-04-12T00:44:54;1.60;99.90
27224;DHT22;14965;50.660;13.226;2023-04-12T00:47:20;1.50;99.90
27224;DHT22;14965;50.660;13.226;2023-04-12T00:49:46;1.50;99.90
27224;DHT22;14965;50.660;13.226;2023-04-12T00:52:12;1.50;99.90
27224;DHT22;14965;50.660;13.226;2023-04-12T00:54:40;1.50;99.90
27224;DHT22;14965;50.660;13.226;2023-04-12T00:57:06;1.40;99.90
27224;DHT22;14965;50.660;13.226;2023-04-12T00:59:32;1.30;99.90
27224;DHT22;14965;50.660;13.226;2023-04-12T01:01:59;1.30;99.90
27224;DHT22;14965;50.660;13.226;2023-04-12T01:04:27;1.30;99.90
27224;DHT22;14965;50.660;13.226;2023-04-12T01:07:04;1.30;99.90
27224;DHT22;14965;50.660;13.226;2023-04-12T01:09:44;1.20;99.90
27224;DHT22;14965;50.660;13.226;2023-04-12T01:12:32;1.20;99.90
27224;DHT22;14965;50.660;13.226;2023-04-12T01:15:06;1.10;99.90
27224;DHT22;14965;50.660;13.226;2023-04-12T01:17:37;1.10;99.90
27224;DHT22;14965;50.660;13.226;2023-04-12T01:20:14;1.10;99.90
27224;DHT22;14965;50.660;13.226;2023-04-12T01:23:16;1.00;99.90
27224;DHT22;14965;50.660;13.226;2023-04-12T01:26:11;1.00;99.90
27224;DHT22;14965;50.660;13.226;2023-04-12T01:28:51;0.90;99.90
27224;DHT22;14965;50.660;13.226;2023-04-12T01:31:19;0.90;99.90
27224;DHT22;14965;50.660;13.226;2023-04-12T01:33:46;0.90;99.90
27224;DHT22;14965;50.660;13.226;2023-04-12T01:36:22;0.80;99.90
27224;DHT22;14965;50.660;13.226;2023-04-12T01:38:52;0.80;99.90
27224;DHT22;14965;50.660;13.226;2023-04-12T01:41:19;0.80;99.90
27224;DHT22;14965;50.660;13.226;2023-04-12T01:43:47;0.80;99.90
27224;DHT22;14965;50.660;13.226;2023-04-12T01:46:14;0.80;99.90
27224;DHT22;14965;50.660;13.226;2023-04-12T01:48:47;0.80;99.90
27224;DHT22;14965;50.660;13.226;2023-04-12T01:51:19;0.80;99.90
27224;DHT22;14965;50.660;13.226;2023-04-12T01:54:00;0.70;99.90
27224;DHT22;14965;50.660;13.226;2023-04-12T01:56:33;0.70;99.90
27224;DHT22;14965;50.660;13.226;2023-04-12T01:59:03;0.70;99.90
27224;DHT22;14965;50.660;13.226;2023-04-12T02:01:30;0.70;99.90
27224;DHT22;14965;50.660;13.226;2023-04-12T02:03:58;0.70;99.90
27224;DHT22;14965;50.660;13.226;2023-04-12T02:06:26;0.70;99.90
27224;DHT22;14965;50.660;13.226;2023-04-12T02:08:56;0.70;99.90
27224;DHT22;14965;50.660;13.226;2023-04-12T02:11:24;0.80;99.90
27224;DHT22;14965;50.660;13.226;2023-04-12T02:13:50;0.80;99.90
27224;DHT22;14965;50.660;13.226;2023-04-12T02:16:17;0.80;99.90
27224;DHT22;14965;50.660;13.226;2023-04-12T02:18:43;0.90;99.90
27224;DHT22;14965;50.660;13.226;2023-04-12T02:21:09;0.90;99.90
27224;DHT22;14965;50.660;13.226;2023-04-12T02:23:35;0.80;99.90
27224;DHT22;14965;50.660;13.226;2023-04-12T02:26:01;0.80;99.90
27224;DHT22;14965;50.660;13.226;2023-04-12T02:28:27;0.80;99.90
27224;DHT22;14965;50.660;13.226;2023-04-12T02:30:53;0.80;99.90
27224;DHT22;14965;50.660;13.226;2023-04-12T02:33:21;0.80;99.90
27224;DHT22;14965;50.660;13.226;2023-04-12T02:35:47;0.80;99.90
27224;DHT22;14965;50.660;13.226;2023-04-12T02:38:13;0.80;99.90
27224;DHT22;14965;50.660;13.226;2023-04-12T02:40:39;0.70;99.90
27224;DHT22;14965;50.660;13.226;2023-04-12T02:43:06;0.70;99.90
27224;DHT22;14965;50.660;13.226;2023-04-12T02:45:33;0.60;99.90
27224;DHT22;14965;50.660;13.226;2023-04-12T02:47:59;0.60;99.90
27224;DHT22;14965;50.660;13.226;2023-04-12T02:50:27;0.50;99.90
27224;DHT22;14965;50.660;13.226;2023-04-12T02:52:54;0.50;99.90
27224;DHT22;14965;50.660;13.226;2023-04-12T02:55:19;0.40;99.90
27224;DHT22;14965;50.660;13.226;2023-04-12T02:57:45;0.50;99.90
27224;DHT22;14965;50.660;13.226;2023-04-12T03:00:12;0.50;99.90
27224;DHT22;14965;50.660;13.226;2023-04-12T03:02:38;0.50;99.90
27224;DHT22;14965;50.660;13.226;2023-04-12T03:05:05;0.50;99.90
27224;DHT22;14965;50.660;13.226;2023-04-12T03:07:32;0.50;99.90
27224;DHT22;14965;50.660;13.226;2023-04-12T03:09:58;0.50;99.90
27224;DHT22;14965;50.660;13.226;2023-04-12T03:12:24;0.50;99.90
27224;DHT22;14965;50.660;13.226;2023-04-12T03:14:51;0.50;99.90
27224;DHT22;14965;50.660;13.226;2023-04-12T03:17:17;0.40;99.90
27224;DHT22;14965;50.660;13.226;2023-04-12T03:19:44;0.40;99.90
27224;DHT22;14965;50.660;13.226;2023-04-12T03:22:09;0.40;99.90
27224;DHT22;14965;50.660;13.226;2023-04-12T03:24:37;0.30;99.90
27224;DHT22;14965;50.660;13.226;2023-04-12T03:27:03;0.30;99.90
27224;DHT22;14965;50.660;13.226;2023-04-12T03:29:30;0.30;99.90
27224;DHT22;14965;50.660;13.226;2023-04-12T03:31:56;0.40;99.90
27224;DHT22;14965;50.660;13.226;2023-04-12T03:34:23;0.40;99.90
27224;DHT22;14965;50.660;13.226;2023-04-12T03:36:49;0.50;99.90
27224;DHT22;14965;50.660;13.226;2023-04-12T03:39:15;0.50;99.90
27224;DHT22;14965;50.660;13.226;2023-04-12T03:41:43;0.60;99.90
27224;DHT22;14965;50.660;13.226;2023-04-12T03:44:10;0.70;99.90
27224;DHT22;14965;50.660;13.226;2023-04-12T03:46:35;0.70;99.90
27224;DHT22;14965;50.660;13.226;2023-04-12T03:49:02;0.80;99.90
27224;DHT22;14965;50.660;13.226;2023-04-12T03:51:28;0.80;99.90
27224;DHT22;14965;50.660;13.226;2023-04-12T03:53:53;0.90;99.90
27224;DHT22;14965;50.660;13.226;2023-04-12T03:56:19;1.00;99.90
27224;DHT22;14965;50.660;13.226;2023-04-12T03:58:47;1.10;99.90
27224;DHT22;14965;50.660;13.226;2023-04-12T04:01:13;1.20;99.90
27224;DHT22;14965;50.660;13.226;2023-04-12T04:03:39;1.20;99.90
27224;DHT22;14965;50.660;13.226;2023-04-12T04:06:06;1.20;99.90
27224;DHT22;14965;50.660;13.226;2023-04-12T04:08:33;1.10;99.90
27224;DHT22;14965;50.660;13.226;2023-04-12T04:10:59;1.00;99.90
27224;DHT22;14965;50.660;13.226;2023-04-12T04:13:25;1.00;99.90
27224;DHT22;14965;50.660;13.226;2023-04-12T04:15:58;1.10;99.90
27224;DHT22;14965;50.660;13.226;2023-04-12T04:18:24;1.30;99.90
27224;DHT22;14965;50.660;13.226;2023-04-12T04:20:50;1.50;99.90
27224;DHT22;14965;50.660;13.226;2023-04-12T04:23:16;1.60;99.90
27224;DHT22;14965;50.660;13.226;2023-04-12T04:25:42;1.80;99.90
27224;DHT22;14965;50.660;13.226;2023-04-12T04:28:08;1.90;99.90
27224;DHT22;14965;50.660;13.226;2023-04-12T04:30:34;2.00;99.90
27224;DHT22;14965;50.660;13.226;2023-04-12T04:33:01;2.10;99.90
27224;DHT22;14965;50.660;13.226;2023-04-12T04:35:27;2.20;99.90
27224;DHT22;14965;50.660;13.226;2023-04-12T04:37:53;2.30;99.90
27224;DHT22;14965;50.660;13.226;2023-04-12T04:40:19;2.40;99.90
27224;DHT22;14965;50.660;13.226;2023-04-12T04:42:45;2.50;99.90
27224;DHT22;14965;50.660;13.226;2023-04-12T04:45:11;2.60;99.90
27224;DHT22;14965;50.660;13.226;2023-04-12T04:47:37;2.70;99.90
27224;DHT22;14965;50.660;13.226;2023-04-12T04:50:06;2.90;99.90
27224;DHT22;14965;50.660;13.226;2023-04-12T04:52:32;3.00;99.90
27224;DHT22;14965;50.660;13.226;2023-04-12T04:54:58;3.10;99.90
27224;DHT22;14965;50.660;13.226;2023-04-12T04:57:24;3.30;99.90
27224;DHT22;14965;50.660;13.226;2023-04-12T04:59:50;3.40;99.90
27224;DHT22;14965;50.660;13.226;2023-04-12T05:02:15;3.50;99.90
27224;DHT22;14965;50.660;13.226;2023-04-12T05:04:42;3.60;99.90
27224;DHT22;14965;50.660;13.226;2023-04-12T05:07:09;3.80;99.90
27224;DHT22;14965;50.660;13.226;2023-04-12T05:09:35;3.90;99.90
27224;DHT22;14965;50.660;13.226;2023-04-12T05:12:01;4.20;99.90
27224;DHT22;14965;50.660;13.226;2023-04-12T05:14:27;4.30;99.90
27224;DHT22;14965;50.660;13.226;2023-04-12T05:16:53;4.50;99.90
27224;DHT22;14965;50.660;13.226;2023-04-12T05:19:19;4.70;99.90
27224;DHT22;14965;50.660;13.226;2023-04-12T05:21:45;5.00;99.90
27224;DHT22;14965;50.660;13.226;2023-04-12T05:24:12;5.30;99.90
27224;DHT22;14965;50.660;13.226;2023-04-12T05:26:38;5.50;99.90
27224;DHT22;14965;50.660;13.226;2023-04-12T05:29:04;5.60;99.90
27224;DHT22;14965;50.660;13.226;2023-04-12T05:31:30;5.70;99.90
27224;DHT22;14965;50.660;13.226;2023-04-12T05:33:56;6.20;99.90
27224;DHT22;14965;50.660;13.226;2023-04-12T05:36:22;7.00;99.90
27224;DHT22;14965;50.660;13.226;2023-04-12T05:38:48;7.70;99.90
27224;DHT22;14965;50.660;13.226;2023-04-12T05:41:15;7.90;99.90
27224;DHT22;14965;50.660;13.226;2023-04-12T05:43:41;7.80;99.90
27224;DHT22;14965;50.660;13.226;2023-04-12T05:46:06;7.60;99.90
27224;DHT22;14965;50.660;13.226;2023-04-12T05:48:32;7.30;99.90
27224;DHT22;14965;50.660;13.226;2023-04-12T05:50:58;7.30;99.90
27224;DHT22;14965;50.660;13.226;2023-04-12T05:53:24;7.60;99.90
27224;DHT22;14965;50.660;13.226;2023-04-12T05:55:50;7.90;99.90
27224;DHT22;14965;50.660;13.226;2023-04-12T05:58:17;8.20;99.90
27224;DHT22;14965;50.660;13.226;2023-04-12T06:00:43;8.40;99.90
27224;DHT22;14965;50.660;13.226;2023-04-12T06:03:09;8.20;99.90
27224;DHT22;14965;50.660;13.226;2023-04-12T06:05:35;7.90;99.90
27224;DHT22;14965;50.660;13.226;2023-04-12T06:08:01;7.80;99.90
27224;DHT22;14965;50.660;13.226;2023-04-12T06:10:27;7.70;99.90
27224;DHT22;14965;50.660;13.226;2023-04-12T06:12:54;7.50;99.90
27224;DHT22;14965;50.660;13.226;2023-04-12T06:15:21;7.30;99.90
27224;DHT22;14965;50.660;13.226;2023-04-12T06:17:47;7.20;99.90
27224;DHT22;14965;50.660;13.226;2023-04-12T06:20:13;7.20;99.90
27224;DHT22;14965;50.660;13.226;2023-04-12T06:22:39;7.20;99.90
27224;DHT22;14965;50.660;13.226;2023-04-12T06:25:06;7.20;99.90
27224;DHT22;14965;50.660;13.226;2023-04-12T06:27:32;7.10;99.90
27224;DHT22;14965;50.660;13.226;2023-04-12T06:29:58;7.00;99.90
27224;DHT22;14965;50.660;13.226;2023-04-12T06:32:25;7.10;99.90
27224;DHT22;14965;50.660;13.226;2023-04-12T06:34:52;7.10;99.90
27224;DHT22;14965;50.660;13.226;2023-04-12T06:37:18;7.10;99.90
27224;DHT22;14965;50.660;13.226;2023-04-12T06:39:44;7.10;99.90
27224;DHT22;14965;50.660;13.226;2023-04-12T06:42:10;7.20;99.90
27224;DHT22;14965;50.660;13.226;2023-04-12T06:44:35;7.20;99.90
27224;DHT22;14965;50.660;13.226;2023-04-12T06:47:01;7.20;99.90
27224;DHT22;14965;50.660;13.226;2023-04-12T06:49:29;7.20;99.90
27224;DHT22;14965;50.660;13.226;2023-04-12T06:51:54;7.20;99.90
27224;DHT22;14965;50.660;13.226;2023-04-12T06:54:20;7.30;99.90
27224;DHT22;14965;50.660;13.226;2023-04-12T06:56:46;7.40;99.90
27224;DHT22;14965;50.660;13.226;2023-04-12T06:59:12;7.40;99.90
27224;DHT22;14965;50.660;13.226;2023-04-12T07:01:38;7.50;99.90
27224;DHT22;14965;50.660;13.226;2023-04-12T07:04:04;7.50;99.90
27224;DHT22;14965;50.660;13.226;2023-04-12T07:06:32;7.50;99.90
27224;DHT22;14965;50.660;13.226;2023-04-12T07:08:58;7.60;99.90
27224;DHT22;14965;50.660;13.226;2023-04-12T07:11:24;7.70;99.90
27224;DHT22;14965;50.660;13.226;2023-04-12T07:13:50;7.60;99.90
27224;DHT22;14965;50.660;13.226;2023-04-12T07:16:16;7.60;99.90
27224;DHT22;14965;50.660;13.226;2023-04-12T07:18:42;7.60;99.90
27224;DHT22;14965;50.660;13.226;2023-04-12T07:21:08;7.60;99.90
27224;DHT22;14965;50.660;13.226;2023-04-12T07:23:36;7.50;99.90
27224;DHT22;14965;50.660;13.226;2023-04-12T07:26:02;7.50;99.90
27224;DHT22;14965;50.660;13.226;2023-04-12T07:28:28;7.40;99.90
27224;DHT22;14965;50.660;13.226;2023-04-12T07:30:54;7.40;99.90
27224;DHT22;14965;50.660;13.226;2023-04-12T07:33:20;7.40;99.90
27224;DHT22;14965;50.660;13.226;2023-04-12T07:35:45;7.40;99.90
27224;DHT22;14965;50.660;13.226;2023-04-12T07:38:11;7.50;99.90
27224;DHT22;14965;50.660;13.226;2023-04-12T07:40:38;7.50;99.90
27224;DHT22;14965;50.660;13.226;2023-04-12T07:43:05;7.50;99.90
27224;DHT22;14965;50.660;13.226;2023-04-12T07:45:30;7.50;99.90
27224;DHT22;14965;50.660;13.226;2023-04-12T07:47:57;7.50;99.90
27224;DHT22;14965;50.660;13.226;2023-04-12T07:50:22;7.50;99.90
27224;DHT22;14965;50.660;13.226;2023-04-12T07:52:48;7.50;99.90
27224;DHT22;14965;50.660;13.226;2023-04-12T07:55:14;7.60;99.90
27224;DHT22;14965;50.660;13.226;2023-04-12T07:57:41;7.60;99.90
27224;DHT22;14965;50.660;13.226;2023-04-12T08:00:08;7.60;99.90
27224;DHT22;14965;50.660;13.226;2023-04-12T08:02:35;7.60;99.90
27224;DHT22;14965;50.660;13.226;2023-04-12T08:05:01;7.70;99.90
27224;DHT22;14965;50.660;13.226;2023-04-12T08:07:27;7.70;99.90
27224;DHT22;14965;50.660;13.226;2023-04-12T08:09:53;7.80;99.90
27224;DHT22;14965;50.660;13.226;2023-04-12T08:12:19;7.90;99.90
27224;DHT22;14965;50.660;13.226;2023-04-12T08:14:47;8.00;99.90
27224;DHT22;14965;50.660;13.226;2023-04-12T08:17:12;8.20;99.90
27224;DHT22;14965;50.660;13.226;2023-04-12T08:19:38;8.20;99.90
27224;DHT22;14965;50.660;13.226;2023-04-12T08:22:04;8.40;99.90
27224;DHT22;14965;50.660;13.226;2023-04-12T08:24:30;8.40;99.90
27224;DHT22;14965;50.660;13.226;2023-04-12T08:26:56;8.40;99.90
27224;DHT22;14965;50.660;13.226;2023-04-12T08:29:22;8.50;99.90
27224;DHT22;14965;50.660;13.226;2023-04-12T08:31:49;8.50;99.90
27224;DHT22;14965;50.660;13.226;2023-04-12T08:34:15;8.50;99.90
27224;DHT22;14965;50.660;13.226;2023-04-12T08:36:41;8.60;99.90
27224;DHT22;14965;50.660;13.226;2023-04-12T08:39:07;8.70;99.90
27224;DHT22;14965;50.660;13.226;2023-04-12T08:41:33;8.80;99.90
27224;DHT22;14965;50.660;13.226;2023-04-12T08:44:00;8.80;99.90
27224;DHT22;14965;50.660;13.226;2023-04-12T08:46:26;8.90;99.90
27224;DHT22;14965;50.660;13.226;2023-04-12T08:48:54;8.90;99.90
27224;DHT22;14965;50.660;13.226;2023-04-12T08:51:21;9.00;99.90
27224;DHT22;14965;50.660;13.226;2023-04-12T08:53:47;9.10;99.90
27224;DHT22;14965;50.660;13.226;2023-04-12T08:56:14;9.20;99.90
27224;DHT22;14965;50.660;13.226;2023-04-12T08:58:46;9.30;99.90
27224;DHT22;14965;50.660;13.226;2023-04-12T09:01:13;9.30;99.90
27224;DHT22;14965;50.660;13.226;2023-04-12T09:03:41;9.50;99.90
27224;DHT22;14965;50.660;13.226;2023-04-12T09:06:09;9.60;99.90
27224;DHT22;14965;50.660;13.226;2023-04-12T09:08:35;9.80;99.90
27224;DHT22;14965;50.660;13.226;2023-04-12T09:11:01;9.90;99.90
27224;DHT22;14965;50.660;13.226;2023-04-12T09:13:31;10.10;99.90
27224;DHT22;14965;50.660;13.226;2023-04-12T09:15:58;10.00;99.90
27224;DHT22;14965;50.660;13.226;2023-04-12T09:18:24;9.90;99.90
27224;DHT22;14965;50.660;13.226;2023-04-12T09:20:50;9.80;99.90
27224;DHT22;14965;50.660;13.226;2023-04-12T09:23:32;9.70;99.90
27224;DHT22;14965;50.660;13.226;2023-04-12T09:25:59;9.80;99.90
27224;DHT22;14965;50.660;13.226;2023-04-12T09:28:26;9.90;99.90
27224;DHT22;14965;50.660;13.226;2023-04-12T09:30:54;9.90;99.90
27224;DHT22;14965;50.660;13.226;2023-04-12T09:33:22;9.90;99.90
27224;DHT22;14965;50.660;13.226;2023-04-12T09:35:59;9.90;99.90
27224;DHT22;14965;50.660;13.226;2023-04-12T09:38:25;10.00;99.90
27224;DHT22;14965;50.660;13.226;2023-04-12T09:40:53;10.10;99.90
27224;DHT22;14965;50.660;13.226;2023-04-12T09:43:35;10.00;99.90
27224;DHT22;14965;50.660;13.226;2023-04-12T09:46:09;9.80;99.90
27224;DHT22;14965;50.660;13.226;2023-04-12T09:48:37;9.70;99.90
27224;DHT22;14965;50.660;13.226;2023-04-12T09:51:03;9.60;99.90
27224;DHT22;14965;50.660;13.226;2023-04-12T09:53:30;9.60;99.90
27224;DHT22;14965;50.660;13.226;2023-04-12T09:56:01;9.70;99.90
27224;DHT22;14965;50.660;13.226;2023-04-12T09:58:28;9.80;99.90
27224;DHT22;14965;50.660;13.226;2023-04-12T10:00:58;10.10;99.90
27224;DHT22;14965;50.660;13.226;2023-04-12T10:03:27;10.20;99.90
27224;DHT22;14965;50.660;13.226;2023-04-12T10:05:54;10.30;99.90
27224;DHT22;14965;50.660;13.226;2023-04-12T10:08:21;10.50;99.90
27224;DHT22;14965;50.660;13.226;2023-04-12T10:10:47;10.60;99.90
27224;DHT22;14965;50.660;13.226;2023-04-12T10:13:16;10.70;99.90
27224;DHT22;14965;50.660;13.226;2023-04-12T10:15:43;10.70;99.90
27224;DHT22;14965;50.660;13.226;2023-04-12T10:18:10;10.60;99.90
27224;DHT22;14965;50.660;13.226;2023-04-12T10:20:39;10.50;99.90
27224;DHT22;14965;50.660;13.226;2023-04-12T10:23:05;10.40;99.90
27224;DHT22;14965;50.660;13.226;2023-04-12T10:25:32;10.30;99.90
27224;DHT22;14965;50.660;13.226;2023-04-12T10:28:12;10.40;99.90
27224;DHT22;14965;50.660;13.226;2023-04-12T10:30:41;10.50;99.90
27224;DHT22;14965;50.660;13.226;2023-04-12T10:33:15;10.60;99.90
27224;DHT22;14965;50.660;13.226;2023-04-12T10:35:53;10.70;99.90
27224;DHT22;14965;50.660;13.226;2023-04-12T10:38:20;10.80;99.90
27224;DHT22;14965;50.660;13.226;2023-04-12T10:41:06;10.90;99.90
27224;DHT22;14965;50.660;13.226;2023-04-12T10:43:35;10.90;99.90
27224;DHT22;14965;50.660;13.226;2023-04-12T10:46:02;10.90;99.90
27224;DHT22;14965;50.660;13.226;2023-04-12T10:48:30;10.60;99.90
27224;DHT22;14965;50.660;13.226;2023-04-12T10:51:17;10.40;99.90
27224;DHT22;14965;50.660;13.226;2023-04-12T10:53:44;10.20;99.90
27224;DHT22;14965;50.660;13.226;2023-04-12T10:56:36;10.30;99.90
27224;DHT22;14965;50.660;13.226;2023-04-12T10:59:05;10.30;99.90
27224;DHT22;14965;50.660;13.226;2023-04-12T11:01:31;10.40;99.90
27224;DHT22;14965;50.660;13.226;2023-04-12T11:04:05;10.50;99.90
27224;DHT22;14965;50.660;13.226;2023-04-12T11:06:42;10.60;99.90
27224;DHT22;14965;50.660;13.226;2023-04-12T11:09:19;10.70;99.90
27224;DHT22;14965;50.660;13.226;2023-04-12T11:11:47;10.70;99.90
27224;DHT22;14965;50.660;13.226;2023-04-12T11:14:15;10.70;99.90
27224;DHT22;14965;50.660;13.226;2023-04-12T11:19:55;10.60;99.90
27224;DHT22;14965;50.660;13.226;2023-04-12T11:22:25;10.60;99.90
27224;DHT22;14965;50.660;13.226;2023-04-12T11:24:55;10.60;99.90
27224;DHT22;14965;50.660;13.226;2023-04-12T11:27:23;10.80;99.90
27224;DHT22;14965;50.660;13.226;2023-04-12T11:29:53;10.80;99.90
27224;DHT22;14965;50.660;13.226;2023-04-12T11:32:22;10.70;99.90
27224;DHT22;14965;50.660;13.226;2023-04-12T11:34:49;10.80;99.90
27224;DHT22;14965;50.660;13.226;2023-04-12T11:37:17;10.90;99.90
27224;DHT22;14965;50.660;13.226;2023-04-12T11:39:45;11.10;99.90
27224;DHT22;14965;50.660;13.226;2023-04-12T11:42:12;11.10;99.90
27224;DHT22;14965;50.660;13.226;2023-04-12T11:44:40;11.10;99.90
27224;DHT22;14965;50.660;13.226;2023-04-12T11:47:12;11.10;99.90
27224;DHT22;14965;50.660;13.226;2023-04-12T11:49:43;11.00;99.90
27224;DHT22;14965;50.660;13.226;2023-04-12T11:52:09;11.00;99.90
27224;DHT22;14965;50.660;13.226;2023-04-12T11:54:35;11.20;99.90
27224;DHT22;14965;50.660;13.226;2023-04-12T11:57:01;11.40;99.90
27224;DHT22;14965;50.660;13.226;2023-04-12T11:59:31;11.40;99.90
27224;DHT22;14965;50.660;13.226;2023-04-12T12:01:58;11.40;99.90
27224;DHT22;14965;50.660;13.226;2023-04-12T12:04:26;11.50;99.90
27224;DHT22;14965;50.660;13.226;2023-04-12T12:06:54;11.40;99.90
27224;DHT22;14965;50.660;13.226;2023-04-12T12:09:21;11.60;99.90
27224;DHT22;14965;50.660;13.226;2023-04-12T12:11:47;11.50;99.90
27224;DHT22;14965;50.660;13.226;2023-04-12T12:14:17;11.60;99.90
27224;DHT22;14965;50.660;13.226;2023-04-12T12:16:50;11.60;99.90
27224;DHT22;14965;50.660;13.226;2023-04-12T12:19:26;11.60;99.90
27224;DHT22;14965;50.660;13.226;2023-04-12T12:22:13;11.50;99.90
27224;DHT22;14965;50.660;13.226;2023-04-12T12:24:45;11.30;99.90
27224;DHT22;14965;50.660;13.226;2023-04-12T12:27:17;11.10;99.90
27224;DHT22;14965;50.660;13.226;2023-04-12T12:29:48;11.20;99.90
27224;DHT22;14965;50.660;13.226;2023-04-12T12:32:16;11.20;99.90
27224;DHT22;14965;50.660;13.226;2023-04-12T12:34:51;11.20;99.90
27224;DHT22;14965;50.660;13.226;2023-04-12T12:37:20;11.10;99.90
27224;DHT22;14965;50.660;13.226;2023-04-12T12:39:59;11.20;99.90
27224;DHT22;14965;50.660;13.226;2023-04-12T12:42:27;11.10;99.90
27224;DHT22;14965;50.660;13.226;2023-04-12T12:44:53;11.10;99.90
27224;DHT22;14965;50.660;13.226;2023-04-12T12:47:19;11.10;99.90
27224;DHT22;14965;50.660;13.226;2023-04-12T12:49:44;11.20;99.90
27224;DHT22;14965;50.660;13.226;2023-04-12T12:52:12;11.20;99.90
27224;DHT22;14965;50.660;13.226;2023-04-12T12:54:38;11.20;99.90
27224;DHT22;14965;50.660;13.226;2023-04-12T12:57:03;11.10;99.90
27224;DHT22;14965;50.660;13.226;2023-04-12T12:59:29;10.90;99.90
27224;DHT22;14965;50.660;13.226;2023-04-12T13:01:55;10.80;99.90
27224;DHT22;14965;50.660;13.226;2023-04-12T13:04:21;10.60;99.90
27224;DHT22;14965;50.660;13.226;2023-04-12T13:06:47;10.50;99.90
27224;DHT22;14965;50.660;13.226;2023-04-12T13:09:15;10.40;99.90
27224;DHT22;14965;50.660;13.226;2023-04-12T13:11:40;10.40;99.90
27224;DHT22;14965;50.660;13.226;2023-04-12T13:14:06;10.30;99.90
27224;DHT22;14965;50.660;13.226;2023-04-12T13:16:32;10.10;99.90
27224;DHT22;14965;50.660;13.226;2023-04-12T13:18:58;9.90;99.90
27224;DHT22;14965;50.660;13.226;2023-04-12T13:21:24;9.80;99.90
27224;DHT22;14965;50.660;13.226;2023-04-12T13:23:50;9.70;99.90
27224;DHT22;14965;50.660;13.226;2023-04-12T13:26:18;9.50;99.90
27224;DHT22;14965;50.660;13.226;2023-04-12T13:28:44;9.40;99.90
27224;DHT22;14965;50.660;13.226;2023-04-12T13:31:10;9.30;99.90
27224;DHT22;14965;50.660;13.226;2023-04-12T13:33:36;9.20;99.90
27224;DHT22;14965;50.660;13.226;2023-04-12T13:36:02;9.20;99.90
27224;DHT22;14965;50.660;13.226;2023-04-12T13:38:28;9.10;99.90
27224;DHT22;14965;50.660;13.226;2023-04-12T13:40:54;9.10;99.90
27224;DHT22;14965;50.660;13.226;2023-04-12T13:43:21;9.20;99.90
27224;DHT22;14965;50.660;13.226;2023-04-12T13:45:47;9.20;99.90
27224;DHT22;14965;50.660;13.226;2023-04-12T13:48:13;9.20;99.90
27224;DHT22;14965;50.660;13.226;2023-04-12T13:50:39;9.30;99.90
27224;DHT22;14965;50.660;13.226;2023-04-12T13:53:05;9.30;99.90
27224;DHT22;14965;50.660;13.226;2023-04-12T13:55:31;9.40;99.90
27224;DHT22;14965;50.660;13.226;2023-04-12T13:57:57;9.40;99.90
27224;DHT22;14965;50.660;13.226;2023-04-12T14:00:24;9.30;99.90
27224;DHT22;14965;50.660;13.226;2023-04-12T14:02:50;9.30;99.90
27224;DHT22;14965;50.660;13.226;2023-04-12T14:05:16;9.30;99.90
27224;DHT22;14965;50.660;13.226;2023-04-12T14:07:42;9.20;99.90
27224;DHT22;14965;50.660;13.226;2023-04-12T14:10:09;9.20;99.90
27224;DHT22;14965;50.660;13.226;2023-04-12T14:12:35;9.10;99.90
27224;DHT22;14965;50.660;13.226;2023-04-12T14:15:01;9.00;99.90
27224;DHT22;14965;50.660;13.226;2023-04-12T14:17:29;9.00;99.90
27224;DHT22;14965;50.660;13.226;2023-04-12T14:19:55;8.90;99.90
27224;DHT22;14965;50.660;13.226;2023-04-12T14:22:20;8.80;99.90
27224;DHT22;14965;50.660;13.226;2023-04-12T14:24:47;8.80;99.90
27224;DHT22;14965;50.660;13.226;2023-04-12T14:27:13;8.80;99.90
27224;DHT22;14965;50.660;13.226;2023-04-12T14:29:39;9.00;99.90
27224;DHT22;14965;50.660;13.226;2023-04-12T14:32:05;9.10;99.90
27224;DHT22;14965;50.660;13.226;2023-04-12T14:34:32;9.20;99.90
27224;DHT22;14965;50.660;13.226;2023-04-12T14:36:58;9.30;99.90
27224;DHT22;14965;50.660;13.226;2023-04-12T14:39:24;9.20;99.90
27224;DHT22;14965;50.660;13.226;2023-04-12T14:41:50;9.10;99.90
27224;DHT22;14965;50.660;13.226;2023-04-12T14:44:16;9.00;99.90
27224;DHT22;14965;50.660;13.226;2023-04-12T14:46:41;8.90;99.90
27224;DHT22;14965;50.660;13.226;2023-04-12T14:49:08;8.90;99.90
27224;DHT22;14965;50.660;13.226;2023-04-12T14:51:35;8.80;99.90
27224;DHT22;14965;50.660;13.226;2023-04-12T14:54:01;8.80;99.90
27224;DHT22;14965;50.660;13.226;2023-04-12T14:56:27;8.80;99.90
27224;DHT22;14965;50.660;13.226;2023-04-12T14:58:54;8.90;99.90
27224;DHT22;14965;50.660;13.226;2023-04-12T15:01:20;8.80;99.90
27224;DHT22;14965;50.660;13.226;2023-04-12T15:03:46;8.80;99.90
27224;DHT22;14965;50.660;13.226;2023-04-12T15:06:12;8.70;99.90
27224;DHT22;14965;50.660;13.226;2023-04-12T15:08:39;8.60;99.90
27224;DHT22;14965;50.660;13.226;2023-04-12T15:11:06;8.60;99.90
27224;DHT22;14965;50.660;13.226;2023-04-12T15:13:32;8.60;99.90
27224;DHT22;14965;50.660;13.226;2023-04-12T15:15:58;8.60;99.90
27224;DHT22;14965;50.660;13.226;2023-04-12T15:18:24;8.60;99.90
27224;DHT22;14965;50.660;13.226;2023-04-12T15:20:50;8.50;99.90
27224;DHT22;14965;50.660;13.226;2023-04-12T15:23:16;8.50;99.90
27224;DHT22;14965;50.660;13.226;2023-04-12T15:25:43;8.50;99.90
27224;DHT22;14965;50.660;13.226;2023-04-12T15:28:09;8.50;99.90
27224;DHT22;14965;50.660;13.226;2023-04-12T15:30:35;8.50;99.90
27224;DHT22;14965;50.660;13.226;2023-04-12T15:33:01;8.50;99.90